createdAt,value
2023-01-29T00:00:23.917Z,34.70
2023-01-29T00:02:52.318Z,34.60
2023-01-29T00:05:27.795Z,34.70
2023-01-29T00:07:56.220Z,34.70
2023-01-29T00:10:24.105Z,34.70
2023-01-29T00:12:52.047Z,34.70
2023-01-29T00:15:21.008Z,34.70
2023-01-29T00:17:48.959Z,34.70
2023-01-29T00:20:17.550Z,34.80
2023-01-29T00:22:45.874Z,35.00
2023-01-29T00:25:13.862Z,35.00
2023-01-29T00:27:41.682Z,34.80
2023-01-29T00:30:13.334Z,34.90
2023-01-29T00:32:41.246Z,34.70
2023-01-29T00:35:09.139Z,34.80
2023-01-29T00:37:36.976Z,34.90
2023-01-29T00:40:05.041Z,34.90
2023-01-29T00:42:50.448Z,34.90
2023-01-29T00:45:18.303Z,34.90
2023-01-29T00:47:46.196Z,35.00
2023-01-29T00:50:14.400Z,34.90
2023-01-29T00:52:42.479Z,35.00
2023-01-29T00:55:10.331Z,35.00
2023-01-29T00:57:38.248Z,35.10
2023-01-29T01:00:06.301Z,35.40
2023-01-29T01:02:51.821Z,35.40
2023-01-29T01:05:19.944Z,35.30
2023-01-29T01:07:47.838Z,35.30
2023-01-29T01:10:24.426Z,35.30
2023-01-29T01:12:52.318Z,35.10
2023-01-29T01:15:20.333Z,35.50
2023-01-29T01:17:48.936Z,35.20
2023-01-29T01:20:17.161Z,35.30
2023-01-29T01:22:45.289Z,35.30
2023-01-29T01:25:13.192Z,35.10
2023-01-29T01:27:41.484Z,35.30
2023-01-29T01:30:09.479Z,35.00
2023-01-29T01:32:37.354Z,35.40
2023-01-29T01:35:05.272Z,35.50
2023-01-29T01:37:33.153Z,35.20
2023-01-29T01:40:01.099Z,35.40
2023-01-29T01:42:30.178Z,35.20
2023-01-29T01:44:58.787Z,35.30
2023-01-29T01:47:26.725Z,35.90
2023-01-29T01:49:54.668Z,35.50
2023-01-29T01:52:22.583Z,35.30
2023-01-29T01:54:50.437Z,35.90
2023-01-29T01:57:18.312Z,35.70
2023-01-29T01:59:46.166Z,35.60
2023-01-29T02:02:31.205Z,35.90
2023-01-29T02:05:16.561Z,35.50
2023-01-29T02:08:01.873Z,35.50
2023-01-29T02:10:29.776Z,35.60
2023-01-29T02:12:57.657Z,35.80
2023-01-29T02:15:25.632Z,35.40
2023-01-29T02:17:53.573Z,35.40
2023-01-29T02:20:24.390Z,35.40
2023-01-29T02:22:55.083Z,35.40
2023-01-29T02:25:23.034Z,35.40
2023-01-29T02:27:50.986Z,35.60
2023-01-29T02:30:19.229Z,35.60
2023-01-29T02:32:54.851Z,35.40
2023-01-29T02:35:29.896Z,35.40
2023-01-29T02:37:57.830Z,35.40
2023-01-29T02:40:25.738Z,35.50
2023-01-29T02:42:53.667Z,35.60
2023-01-29T02:45:21.568Z,35.40
2023-01-29T02:47:49.484Z,35.60
2023-01-29T02:50:17.716Z,35.60
2023-01-29T02:52:49.768Z,35.60
2023-01-29T02:55:17.665Z,35.40
2023-01-29T02:57:45.503Z,35.60
2023-01-29T03:00:13.506Z,35.80
2023-01-29T03:02:41.581Z,36.20
2023-01-29T03:05:10.385Z,35.50
2023-01-29T03:07:45.052Z,36.00
2023-01-29T03:10:13.312Z,35.60
2023-01-29T03:12:41.296Z,35.80
2023-01-29T03:15:16.765Z,35.60
2023-01-29T03:17:44.678Z,35.70
2023-01-29T03:20:13.645Z,35.90
2023-01-29T03:22:41.594Z,35.80
2023-01-29T03:25:27.008Z,35.80
2023-01-29T03:28:12.536Z,35.50
2023-01-29T03:30:58.249Z,35.60
2023-01-29T03:33:26.152Z,35.70
2023-01-29T03:35:54.045Z,35.60
2023-01-29T03:38:21.921Z,35.90
2023-01-29T03:40:49.803Z,35.80
2023-01-29T03:43:17.736Z,35.70
2023-01-29T03:45:45.661Z,36.10
2023-01-29T03:48:13.523Z,36.00
2023-01-29T03:50:41.479Z,35.80
2023-01-29T03:53:09.745Z,35.90
2023-01-29T03:55:37.610Z,35.80
2023-01-29T03:58:05.774Z,35.70
2023-01-29T04:00:33.623Z,36.10
2023-01-29T04:03:01.547Z,35.90
2023-01-29T04:05:29.387Z,35.90
2023-01-29T04:07:57.307Z,35.70
2023-01-29T04:10:25.214Z,36.10
2023-01-29T04:12:53.060Z,36.10
2023-01-29T04:15:20.927Z,35.70
2023-01-29T04:17:48.894Z,36.10
2023-01-29T04:20:17.010Z,35.90
2023-01-29T04:22:45.061Z,36.10
2023-01-29T04:25:16.165Z,36.30
2023-01-29T04:27:44.076Z,35.70
2023-01-29T04:30:11.928Z,35.60
2023-01-29T04:32:40.020Z,35.70
2023-01-29T04:35:07.937Z,35.70
2023-01-29T04:37:35.813Z,35.70
2023-01-29T04:40:03.680Z,35.60
2023-01-29T04:42:31.684Z,35.60
2023-01-29T04:44:59.561Z,35.80
2023-01-29T04:47:27.574Z,35.80
2023-01-29T04:49:55.490Z,36.00
2023-01-29T04:52:23.373Z,36.10
2023-01-29T04:54:51.321Z,35.90
2023-01-29T04:57:19.178Z,35.90
2023-01-29T04:59:47.055Z,35.90
2023-01-29T05:02:14.984Z,35.90
2023-01-29T05:04:42.800Z,35.90
2023-01-29T05:07:10.644Z,35.90
2023-01-29T05:09:38.511Z,35.90
2023-01-29T05:12:06.401Z,36.00
2023-01-29T05:14:34.249Z,35.90
2023-01-29T05:17:02.144Z,36.00
2023-01-29T05:19:29.976Z,36.10
2023-01-29T05:21:57.815Z,36.10
2023-01-29T05:24:25.718Z,36.20
2023-01-29T05:27:11.118Z,36.30
2023-01-29T05:29:39.096Z,36.40
2023-01-29T05:32:07.064Z,36.50
2023-01-29T05:34:34.984Z,36.50
2023-01-29T05:37:03.093Z,36.60
2023-01-29T05:39:30.946Z,36.70
2023-01-29T05:41:58.878Z,36.70
2023-01-29T05:44:26.729Z,36.70
2023-01-29T05:46:54.675Z,36.70
2023-01-29T05:49:22.799Z,36.90
2023-01-29T05:51:50.771Z,37.00
2023-01-29T05:54:18.658Z,36.90
2023-01-29T05:56:46.563Z,36.30
2023-01-29T05:59:14.556Z,35.50
2023-01-29T06:01:42.508Z,34.20
2023-01-29T06:04:10.391Z,32.90
2023-01-29T06:06:38.298Z,31.70
2023-01-29T06:09:06.196Z,30.60
2023-01-29T06:11:34.113Z,29.10
2023-01-29T06:14:01.958Z,24.70
2023-01-29T06:16:29.981Z,20.30
2023-01-29T06:18:57.903Z,17.20
2023-01-29T06:21:25.845Z,15.30
2023-01-29T06:23:53.843Z,14.10
2023-01-29T06:26:21.823Z,13.30
2023-01-29T06:28:49.752Z,12.80
2023-01-29T06:31:38.292Z,12.40
2023-01-29T06:34:06.670Z,12.20
2023-01-29T06:36:34.621Z,12.00
2023-01-29T06:39:02.540Z,12.00
2023-01-29T06:41:30.447Z,11.80
2023-01-29T06:43:58.381Z,11.70
2023-01-29T06:46:26.345Z,11.80
2023-01-29T06:48:54.236Z,11.80
2023-01-29T06:51:23.308Z,11.80
2023-01-29T06:53:51.372Z,11.80
2023-01-29T06:56:19.339Z,12.00
2023-01-29T06:58:47.293Z,12.30
2023-01-29T07:01:29.258Z,12.80
2023-01-29T07:04:03.157Z,13.30
2023-01-29T07:06:30.998Z,14.00
2023-01-29T07:08:58.992Z,14.70
2023-01-29T07:11:26.891Z,15.50
2023-01-29T07:13:54.777Z,16.20
2023-01-29T07:16:23.584Z,16.80
2023-01-29T07:18:51.515Z,17.50
2023-01-29T07:21:19.552Z,18.00
2023-01-29T07:23:47.415Z,18.70
2023-01-29T07:26:15.308Z,19.30
2023-01-29T07:28:43.216Z,19.80
2023-01-29T07:31:11.131Z,20.40
2023-01-29T07:33:39.132Z,21.10
2023-01-29T07:36:06.982Z,21.70
2023-01-29T07:38:34.941Z,22.20
2023-01-29T07:41:03.372Z,23.40
2023-01-29T07:43:31.471Z,23.40
2023-01-29T07:45:59.394Z,23.90
2023-01-29T07:48:27.282Z,24.50
2023-01-29T07:50:55.180Z,25.00
2023-01-29T07:53:23.060Z,25.40
2023-01-29T07:55:51.011Z,25.90
2023-01-29T07:58:18.925Z,26.30
2023-01-29T08:00:46.831Z,26.70
2023-01-29T08:03:16.285Z,26.80
2023-01-29T08:05:44.152Z,24.10
2023-01-29T08:08:12.103Z,20.60
2023-01-29T08:10:40.034Z,18.50
2023-01-29T08:13:07.981Z,17.00
2023-01-29T08:15:38.016Z,16.10
2023-01-29T08:18:06.942Z,15.00
2023-01-29T08:20:34.949Z,14.20
2023-01-29T08:23:03.008Z,13.60
2023-01-29T08:25:31.222Z,13.30
2023-01-29T08:27:59.371Z,13.30
2023-01-29T08:30:27.269Z,13.30
2023-01-29T08:32:55.157Z,13.80
2023-01-29T08:35:23.118Z,14.20
2023-01-29T08:37:50.997Z,14.80
2023-01-29T08:40:19.196Z,15.40
2023-01-29T08:42:47.361Z,16.00
2023-01-29T08:45:15.280Z,16.60
2023-01-29T08:47:43.353Z,17.00
2023-01-29T08:50:11.228Z,18.00
2023-01-29T08:52:39.116Z,18.30
2023-01-29T08:55:06.954Z,18.80
2023-01-29T08:57:34.856Z,19.60
2023-01-29T09:00:02.799Z,20.20
2023-01-29T09:02:30.746Z,20.80
2023-01-29T09:04:58.685Z,21.40
2023-01-29T09:07:26.878Z,22.00
2023-01-29T09:09:55.492Z,22.50
2023-01-29T09:12:23.311Z,23.10
2023-01-29T09:14:51.207Z,23.60
2023-01-29T09:17:19.077Z,24.20
2023-01-29T09:19:46.895Z,24.60
2023-01-29T09:22:14.898Z,25.10
2023-01-29T09:24:42.742Z,25.60
2023-01-29T09:27:11.055Z,26.10
2023-01-29T09:29:39.071Z,26.50
2023-01-29T09:32:07.168Z,26.90
2023-01-29T09:34:35.145Z,27.30
2023-01-29T09:37:03.043Z,27.60
2023-01-29T09:39:30.943Z,28.50
2023-01-29T09:41:58.825Z,28.30
2023-01-29T09:44:26.670Z,28.50
2023-01-29T09:46:54.959Z,28.80
2023-01-29T09:49:22.836Z,29.60
2023-01-29T09:51:51.373Z,29.30
2023-01-29T09:54:19.245Z,29.60
2023-01-29T09:56:47.155Z,29.80
2023-01-29T09:59:15.024Z,30.00
2023-01-29T10:01:42.979Z,30.20
2023-01-29T10:04:10.979Z,30.20
2023-01-29T10:06:38.824Z,30.70
2023-01-29T10:09:06.687Z,30.70
2023-01-29T10:11:34.563Z,31.40
2023-01-29T10:14:02.416Z,31.30
2023-01-29T10:16:30.407Z,31.70
2023-01-29T10:18:58.374Z,31.80
2023-01-29T10:21:26.835Z,32.10
2023-01-29T10:23:54.916Z,32.10
2023-01-29T10:26:22.871Z,32.20
2023-01-29T10:28:50.923Z,32.60
2023-01-29T10:31:19.195Z,32.80
2023-01-29T10:34:01.408Z,32.90
2023-01-29T10:36:30.489Z,33.10
2023-01-29T10:38:58.319Z,33.10
2023-01-29T10:41:26.169Z,33.10
2023-01-29T10:43:54.052Z,33.30
2023-01-29T10:46:21.847Z,33.60
2023-01-29T10:48:49.734Z,33.40
2023-01-29T10:51:17.582Z,33.60
2023-01-29T10:53:45.527Z,33.80
2023-01-29T10:56:22.390Z,33.70
2023-01-29T10:58:50.981Z,33.90
2023-01-29T11:01:18.943Z,34.10
2023-01-29T11:03:46.829Z,34.00
2023-01-29T11:06:14.665Z,34.20
2023-01-29T11:08:42.535Z,34.20
2023-01-29T11:11:10.527Z,34.40
2023-01-29T11:13:38.412Z,34.50
2023-01-29T11:16:06.257Z,34.60
2023-01-29T11:18:34.143Z,34.70
2023-01-29T11:21:02.279Z,34.60
2023-01-29T11:23:30.268Z,34.50
2023-01-29T11:25:58.441Z,34.80
2023-01-29T11:28:26.393Z,35.00
2023-01-29T11:30:54.367Z,35.00
2023-01-29T11:33:22.313Z,35.00
2023-01-29T11:35:50.462Z,35.10
2023-01-29T11:38:18.551Z,35.40
2023-01-29T11:40:46.530Z,35.20
2023-01-29T11:43:14.392Z,35.10
2023-01-29T11:45:42.370Z,35.20
2023-01-29T11:48:10.169Z,35.60
2023-01-29T11:50:41.344Z,35.20
2023-01-29T11:53:09.164Z,35.20
2023-01-29T11:55:49.954Z,35.40
2023-01-29T11:58:18.551Z,35.40
2023-01-29T12:00:46.390Z,35.40
2023-01-29T12:03:14.232Z,35.50
2023-01-29T12:05:42.148Z,35.60
2023-01-29T12:08:09.986Z,35.50
2023-01-29T12:10:38.004Z,35.60
2023-01-29T12:13:05.856Z,35.60
2023-01-29T12:15:33.867Z,35.50
2023-01-29T12:18:01.716Z,35.60
2023-01-29T12:20:29.567Z,35.50
2023-01-29T12:22:57.466Z,35.70
2023-01-29T12:25:25.297Z,35.80
2023-01-29T12:27:53.284Z,35.80
2023-01-29T12:30:21.154Z,36.00
2023-01-29T12:32:49.834Z,35.80
2023-01-29T12:35:17.809Z,35.80
2023-01-29T12:37:45.643Z,35.90
2023-01-29T12:40:13.516Z,36.00
2023-01-29T12:42:41.428Z,36.10
2023-01-29T12:45:10.959Z,36.20
2023-01-29T12:47:38.823Z,37.90
2023-01-29T12:50:06.786Z,33.10
2023-01-29T12:52:34.833Z,24.80
2023-01-29T12:55:02.731Z,19.70
2023-01-29T12:57:30.676Z,16.60
2023-01-29T12:59:58.587Z,14.90
2023-01-29T13:02:26.586Z,13.80
2023-01-29T13:04:54.473Z,13.20
2023-01-29T13:07:23.762Z,12.80
2023-01-29T13:09:51.961Z,12.60
2023-01-29T13:12:19.896Z,12.40
2023-01-29T13:14:47.759Z,12.10
2023-01-29T13:17:15.800Z,12.00
2023-01-29T13:19:43.732Z,12.20
2023-01-29T13:22:11.583Z,12.50
2023-01-29T13:24:39.460Z,13.00
2023-01-29T13:27:07.304Z,13.70
2023-01-29T13:29:35.224Z,14.30
2023-01-29T13:32:03.128Z,15.00
2023-01-29T13:34:31.802Z,15.70
2023-01-29T13:36:59.686Z,16.40
2023-01-29T13:39:27.768Z,17.10
2023-01-29T13:41:55.643Z,17.80
2023-01-29T13:44:23.541Z,18.30
2023-01-29T13:46:51.440Z,19.10
2023-01-29T13:49:19.391Z,19.80
2023-01-29T13:51:47.277Z,20.30
2023-01-29T13:54:15.125Z,21.00
2023-01-29T13:56:43.187Z,21.60
2023-01-29T13:59:11.128Z,22.20
2023-01-29T14:01:39.030Z,22.80
2023-01-29T14:04:06.901Z,23.30
2023-01-29T14:06:34.893Z,23.80
2023-01-29T14:09:02.764Z,24.30
2023-01-29T14:11:30.631Z,24.80
2023-01-29T14:13:58.479Z,25.30
2023-01-29T14:16:26.403Z,25.30
2023-01-29T14:18:55.529Z,25.00
2023-01-29T14:21:24.049Z,24.50
2023-01-29T14:23:51.918Z,23.70
2023-01-29T14:26:19.890Z,23.10
2023-01-29T14:28:47.765Z,22.30
2023-01-29T14:31:15.712Z,21.90
2023-01-29T14:33:44.767Z,21.30
2023-01-29T14:36:12.654Z,21.00
2023-01-29T14:38:40.594Z,20.90
2023-01-29T14:41:08.488Z,20.80
2023-01-29T14:43:36.343Z,20.70
2023-01-29T14:46:04.196Z,20.70
2023-01-29T14:48:32.143Z,21.00
2023-01-29T14:51:00.529Z,21.00
2023-01-29T14:53:28.390Z,21.20
2023-01-29T14:55:56.297Z,21.30
2023-01-29T14:58:24.152Z,21.50
2023-01-29T15:00:52.016Z,21.60
2023-01-29T15:03:19.915Z,21.80
2023-01-29T15:05:47.803Z,21.90
2023-01-29T15:08:15.650Z,22.00
2023-01-29T15:10:43.501Z,22.10
2023-01-29T15:13:11.438Z,21.90
2023-01-29T15:15:39.655Z,21.00
2023-01-29T15:18:07.542Z,19.80
2023-01-29T15:20:35.479Z,18.40
2023-01-29T15:23:03.596Z,17.40
2023-01-29T15:25:31.483Z,16.60
2023-01-29T15:27:59.360Z,16.20
2023-01-29T15:30:27.242Z,15.90
2023-01-29T15:32:55.058Z,16.00
2023-01-29T15:35:23.010Z,16.20
2023-01-29T15:37:50.983Z,16.60
2023-01-29T15:40:18.867Z,17.00
2023-01-29T15:42:48.418Z,17.50
2023-01-29T15:45:16.611Z,18.10
2023-01-29T15:47:44.725Z,18.80
2023-01-29T15:50:12.680Z,19.20
2023-01-29T15:52:40.599Z,20.00
2023-01-29T15:55:08.879Z,20.60
2023-01-29T15:57:37.575Z,21.20
2023-01-29T16:00:05.544Z,21.80
2023-01-29T16:02:33.439Z,22.40
2023-01-29T16:05:01.433Z,22.90
2023-01-29T16:07:29.319Z,23.50
2023-01-29T16:09:57.283Z,24.00
2023-01-29T16:12:25.171Z,24.50
2023-01-29T16:14:53.190Z,25.00
2023-01-29T16:17:21.099Z,25.50
2023-01-29T16:19:48.991Z,26.10
2023-01-29T16:22:16.994Z,26.40
2023-01-29T16:24:47.871Z,25.80
2023-01-29T16:27:15.958Z,24.00
2023-01-29T16:29:43.865Z,21.20
2023-01-29T16:32:14.051Z,18.90
2023-01-29T16:34:41.975Z,18.00
2023-01-29T16:37:10.144Z,17.40
2023-01-29T16:39:38.212Z,16.70
2023-01-29T16:42:06.220Z,16.10
2023-01-29T16:44:35.615Z,15.30
2023-01-29T16:47:03.610Z,15.00
2023-01-29T16:49:31.725Z,14.60
2023-01-29T16:51:59.938Z,14.60
2023-01-29T16:54:27.984Z,14.80
2023-01-29T16:56:55.954Z,15.10
2023-01-29T16:59:26.953Z,15.50
2023-01-29T17:01:54.952Z,15.80
2023-01-29T17:04:22.980Z,16.40
2023-01-29T17:06:51.053Z,16.90
2023-01-29T17:09:18.935Z,17.50
2023-01-29T17:11:46.951Z,18.10
2023-01-29T17:14:14.820Z,18.80
2023-01-29T17:16:42.740Z,19.40
2023-01-29T17:19:10.836Z,20.10
2023-01-29T17:21:39.020Z,20.70
2023-01-29T17:24:07.233Z,21.20
2023-01-29T17:26:35.171Z,21.80
2023-01-29T17:29:03.151Z,22.40
2023-01-29T17:31:31.274Z,22.90
2023-01-29T17:33:59.325Z,23.40
2023-01-29T17:36:27.322Z,24.00
2023-01-29T17:38:55.186Z,24.50
2023-01-29T17:41:23.312Z,25.00
2023-01-29T17:43:51.975Z,25.40
2023-01-29T17:46:20.060Z,25.90
2023-01-29T17:48:49.252Z,26.40
2023-01-29T17:51:17.337Z,26.90
2023-01-29T17:53:46.597Z,27.10
2023-01-29T17:56:15.204Z,27.60
2023-01-29T17:58:43.271Z,28.00
2023-01-29T18:01:11.129Z,28.40
2023-01-29T18:03:39.194Z,28.70
2023-01-29T18:06:07.162Z,29.00
2023-01-29T18:08:35.394Z,29.20
2023-01-29T18:11:03.515Z,29.60
2023-01-29T18:13:31.482Z,29.80
2023-01-29T18:15:59.428Z,30.00
2023-01-29T18:18:27.436Z,30.30
2023-01-29T18:20:55.370Z,30.60
2023-01-29T18:23:23.459Z,31.50
2023-01-29T18:25:52.873Z,28.80
2023-01-29T18:28:20.786Z,24.30
2023-01-29T18:30:48.654Z,20.60
2023-01-29T18:33:16.955Z,18.70
2023-01-29T18:35:44.921Z,17.70
2023-01-29T18:38:13.188Z,17.00
2023-01-29T18:40:41.216Z,16.10
2023-01-29T18:43:09.115Z,15.10
2023-01-29T18:45:37.169Z,14.50
2023-01-29T18:48:05.182Z,14.60
2023-01-29T18:50:33.049Z,13.60
2023-01-29T18:53:01.029Z,13.60
2023-01-29T18:55:29.079Z,13.70
2023-01-29T18:58:26.559Z,14.00
2023-01-29T19:00:46.126Z,14.40
2023-01-29T19:03:14.454Z,15.10
2023-01-29T19:05:42.466Z,15.70
2023-01-29T19:08:10.394Z,16.20
2023-01-29T19:10:38.389Z,16.90
2023-01-29T19:13:06.737Z,17.40
2023-01-29T19:15:35.167Z,18.20
2023-01-29T19:18:04.345Z,19.30
2023-01-29T19:20:32.316Z,19.50
2023-01-29T19:23:00.313Z,20.20
2023-01-29T19:25:28.321Z,20.80
2023-01-29T19:27:56.395Z,21.40
2023-01-29T19:30:24.433Z,22.00
2023-01-29T19:32:52.330Z,22.50
2023-01-29T19:35:20.410Z,23.00
2023-01-29T19:37:48.432Z,23.50
2023-01-29T19:40:16.408Z,24.00
2023-01-29T19:42:44.393Z,24.50
2023-01-29T19:45:12.394Z,25.00
2023-01-29T19:47:40.617Z,25.50
2023-01-29T19:50:08.688Z,26.00
2023-01-29T19:52:52.138Z,26.40
2023-01-29T19:55:20.450Z,26.80
2023-01-29T19:57:48.663Z,27.20
2023-01-29T20:00:17.619Z,27.60
2023-01-29T20:02:45.727Z,28.00
2023-01-29T20:05:13.764Z,28.40
2023-01-29T20:07:42.683Z,28.80
2023-01-29T20:10:11.797Z,29.20
2023-01-29T20:12:39.717Z,29.50
2023-01-29T20:15:07.921Z,29.80
2023-01-29T20:17:35.847Z,30.00
2023-01-29T20:20:04.248Z,30.40
2023-01-29T20:22:32.278Z,30.60
2023-01-29T20:25:00.193Z,31.60
2023-01-29T20:27:28.408Z,31.20
2023-01-29T20:29:56.326Z,31.30
2023-01-29T20:32:24.218Z,31.60
2023-01-29T20:34:53.401Z,31.70
2023-01-29T20:37:21.527Z,32.00
2023-01-29T20:39:49.457Z,32.10
2023-01-29T20:42:17.410Z,32.20
2023-01-29T20:44:45.488Z,33.20
2023-01-29T20:47:14.431Z,32.70
2023-01-29T20:49:42.365Z,32.80
2023-01-29T20:52:10.861Z,33.00
2023-01-29T20:54:38.724Z,33.10
2023-01-29T20:57:06.948Z,33.10
2023-01-29T20:59:34.831Z,33.20
2023-01-29T21:02:02.806Z,33.40
2023-01-29T21:04:31.780Z,33.60
2023-01-29T21:06:59.768Z,33.80
2023-01-29T21:09:27.974Z,33.80
2023-01-29T21:11:56.090Z,34.10
2023-01-29T21:14:24.025Z,34.10
2023-01-29T21:16:51.999Z,34.20
2023-01-29T21:19:20.057Z,34.50
2023-01-29T21:21:47.991Z,34.40
2023-01-29T21:24:18.785Z,34.50
2023-01-29T21:26:46.759Z,34.50
2023-01-29T21:29:14.706Z,34.60
2023-01-29T21:31:42.585Z,34.70
2023-01-29T21:34:10.516Z,35.00
2023-01-29T21:36:38.435Z,34.90
2023-01-29T21:39:16.695Z,35.00
2023-01-29T21:42:01.842Z,35.10
2023-01-29T21:44:29.668Z,34.90
2023-01-29T21:46:57.584Z,35.30
2023-01-29T21:49:25.517Z,35.30
2023-01-29T21:51:56.236Z,35.50
2023-01-29T21:54:24.181Z,35.40
2023-01-29T21:56:54.367Z,35.50
2023-01-29T21:59:22.127Z,35.60
2023-01-29T22:01:50.174Z,35.60
2023-01-29T22:04:17.985Z,35.60
2023-01-29T22:06:45.724Z,35.70
2023-01-29T22:09:13.839Z,35.60
2023-01-29T22:11:41.892Z,35.70
2023-01-29T22:14:09.665Z,35.90
2023-01-29T22:16:37.496Z,35.70
2023-01-29T22:19:05.301Z,35.80
2023-01-29T22:21:35.659Z,35.80
2023-01-29T22:24:03.685Z,36.00
2023-01-29T22:26:32.217Z,36.10
2023-01-29T22:29:00.004Z,36.00
2023-01-29T22:31:27.824Z,36.10
2023-01-29T22:33:55.584Z,36.10
2023-01-29T22:36:23.389Z,36.30
2023-01-29T22:38:51.131Z,36.20
2023-01-29T22:41:18.918Z,36.40
2023-01-29T22:43:46.802Z,36.30
2023-01-29T22:46:14.646Z,36.30
2023-01-29T22:48:42.498Z,36.30
2023-01-29T22:51:13.912Z,36.50
2023-01-29T22:53:41.706Z,36.10
2023-01-29T22:56:09.439Z,36.50
2023-01-29T22:58:37.200Z,36.50
2023-01-29T23:01:04.951Z,36.50
2023-01-29T23:03:32.739Z,36.40
2023-01-29T23:06:00.511Z,36.50
2023-01-29T23:08:28.258Z,36.30
2023-01-29T23:11:13.922Z,36.30
2023-01-29T23:13:42.102Z,36.40
2023-01-29T23:16:09.990Z,36.60
2023-01-29T23:18:37.797Z,36.70
2023-01-29T23:21:05.613Z,36.70
2023-01-29T23:23:33.393Z,36.60
2023-01-29T23:26:18.509Z,36.60
2023-01-29T23:28:46.295Z,36.00
2023-01-29T23:31:14.024Z,36.50
2023-01-29T23:33:41.733Z,36.60
2023-01-29T23:36:09.471Z,36.90
2023-01-29T23:38:37.407Z,36.80
2023-01-29T23:41:05.210Z,36.90
2023-01-29T23:43:32.950Z,37.00
2023-01-29T23:46:00.706Z,37.00
2023-01-29T23:48:28.442Z,37.10
2023-01-29T23:50:56.202Z,36.80
2023-01-29T23:53:24.026Z,36.80
2023-01-29T23:55:51.735Z,36.90
2023-01-29T23:58:19.454Z,37.00
